Time;durP1;ratioP1;P1;durP2;ratioP2;P2;SDS_P1;SDS_P2;PMS_P1;PMS_P2;Temp;Humidity;BMP_temperature;BMP_pressure;BME280_temperature;BME280_humidity;BME280_pressure;Samples;Min_cycle;Max_cycle;Signal;HPM_P1;HPM_P2
2023/08/15 00:00:22;;;;;;;7.55;3.88;;;17.30;99.90;;;;;;4928845;28;20490;-71
2023/08/15 00:02:48;;;;;;;4.50;3.45;;;17.30;99.90;;;;;;4926909;29;20047;-71
2023/08/15 00:05:14;;;;;;;6.72;4.13;;;17.30;99.90;;;;;;4927663;29;20047;-71
2023/08/15 00:07:39;;;;;;;8.52;4.05;;;17.30;99.90;;;;;;4927409;29;20050;-71
2023/08/15 00:10:05;;;;;;;8.75;3.92;;;17.40;99.90;;;;;;4945837;28;20039;-71
2023/08/15 00:12:31;;;;;;;8.13;3.47;;;17.40;99.90;;;;;;4932545;28;20478;-71
2023/08/15 00:14:57;;;;;;;8.15;3.35;;;17.30;99.90;;;;;;4944723;28;20054;-71
2023/08/15 00:17:22;;;;;;;14.30;5.10;;;17.30;99.90;;;;;;4943993;28;20039;-71
2023/08/15 00:19:48;;;;;;;8.07;5.40;;;17.30;99.90;;;;;;4944856;28;20043;-71
2023/08/15 00:22:15;;;;;;;7.85;4.70;;;17.30;99.90;;;;;;4935678;28;20043;-71
2023/08/15 00:24:41;;;;;;;8.52;6.07;;;17.30;99.90;;;;;;4942671;28;20043;-71
2023/08/15 00:27:07;;;;;;;8.32;5.05;;;17.30;99.90;;;;;;4944771;28;20051;-71
2023/08/15 00:29:32;;;;;;;9.25;5.43;;;17.30;99.90;;;;;;4945364;28;20118;-71
2023/08/15 00:31:58;;;;;;;6.55;3.50;;;17.30;99.90;;;;;;4927473;28;20070;-71
2023/08/15 00:34:23;;;;;;;5.55;3.80;;;17.40;99.90;;;;;;4930471;28;20046;-71
2023/08/15 00:36:49;;;;;;;7.47;3.30;;;17.30;99.90;;;;;;4950574;28;20032;-71
2023/08/15 00:39:14;;;;;;;7.32;3.92;;;17.30;99.90;;;;;;4929794;28;20035;-71
2023/08/15 00:41:40;;;;;;;7.28;4.40;;;17.30;99.90;;;;;;4950288;28;20058;-71
2023/08/15 00:44:05;;;;;;;4.18;3.75;;;17.20;99.90;;;;;;4950732;28;20062;-71
2023/08/15 00:46:31;;;;;;;6.95;4.70;;;17.20;99.90;;;;;;4951498;28;20075;-71
2023/08/15 00:48:58;;;;;;;11.48;7.70;;;17.20;99.90;;;;;;4932345;28;20414;-71
2023/08/15 00:51:24;;;;;;;11.30;7.38;;;17.20;99.90;;;;;;4964691;28;20054;-71
2023/08/15 00:53:51;;;;;;;12.30;7.43;;;17.20;99.90;;;;;;4951011;28;20410;-71
2023/08/15 00:56:18;;;;;;;11.77;7.45;;;17.30;99.90;;;;;;4951622;28;20043;-71
2023/08/15 00:58:44;;;;;;;10.45;6.93;;;17.30;99.90;;;;;;4948667;28;20047;-71
2023/08/15 01:01:17;;;;;;;12.77;7.35;;;17.30;99.90;;;;;;4951383;28;20191;-71
2023/08/15 01:03:43;;;;;;;9.77;6.65;;;17.40;99.90;;;;;;4933599;28;20031;-71
2023/08/15 01:06:09;;;;;;;10.43;7.53;;;17.40;99.90;;;;;;4948223;28;20043;-71
2023/08/15 01:08:34;;;;;;;12.88;7.72;;;17.40;99.90;;;;;;4949698;28;20102;-71
2023/08/15 01:11:04;;;;;;;9.43;8.40;;;17.40;99.90;;;;;;4951361;28;20036;-71
2023/08/15 01:13:33;;;;;;;12.80;8.35;;;17.50;99.90;;;;;;4951656;28;20039;-71
2023/08/15 01:16:02;;;;;;;9.45;7.60;;;17.50;99.90;;;;;;4945822;28;20494;-71
2023/08/15 01:18:34;;;;;;;9.07;8.00;;;17.50;99.90;;;;;;4946386;28;20491;-71
2023/08/15 01:21:01;;;;;;;10.02;7.70;;;17.50;99.90;;;;;;4960217;28;20043;-71
2023/08/15 01:23:45;;;;;;;12.13;8.45;;;17.50;99.90;;;;;;4930652;28;20039;-71
2023/08/15 01:26:11;;;;;;;9.10;8.15;;;17.50;99.90;;;;;;4944205;28;20402;-71
2023/08/15 01:28:40;;;;;;;10.48;8.32;;;17.50;99.90;;;;;;4928843;28;20046;-71
2023/08/15 01:31:34;;;;;;;9.45;7.72;;;17.50;99.90;;;;;;4936443;28;20047;-71
2023/08/15 01:34:16;;;;;;;12.18;7.18;;;17.50;99.90;;;;;;4932658;28;20098;-71
2023/08/15 01:36:50;;;;;;;10.18;8.77;;;17.50;99.90;;;;;;4926452;28;20052;-71
2023/08/15 01:39:21;;;;;;;9.75;8.20;;;17.50;99.90;;;;;;4928417;28;20050;-71
2023/08/15 01:41:48;;;;;;;9.88;7.55;;;17.40;99.90;;;;;;4933146;29;20135;-71
2023/08/15 01:44:14;;;;;;;15.20;8.60;;;17.40;99.90;;;;;;4947079;28;20158;-71
2023/08/15 01:46:40;;;;;;;8.35;7.50;;;17.40;99.90;;;;;;4945234;28;20035;-72
2023/08/15 01:49:06;;;;;;;10.15;7.93;;;17.40;99.90;;;;;;4948384;28;20047;-71
2023/08/15 01:51:31;;;;;;;14.63;8.38;;;17.40;99.90;;;;;;4929981;29;20174;-71
2023/08/15 01:53:57;;;;;;;13.25;8.00;;;17.40;99.90;;;;;;4943895;28;20046;-71
2023/08/15 01:56:24;;;;;;;10.35;8.95;;;17.50;99.90;;;;;;4931744;28;20043;-71
2023/08/15 01:58:49;;;;;;;15.80;8.73;;;17.40;99.90;;;;;;4947151;28;20039;-71
2023/08/15 02:01:15;;;;;;;19.75;9.00;;;17.40;99.90;;;;;;4949124;28;20045;-71
2023/08/15 02:03:40;;;;;;;12.40;8.77;;;17.40;99.90;;;;;;4929539;28;20399;-72
2023/08/15 02:06:06;;;;;;;14.98;7.78;;;17.40;99.90;;;;;;4947481;28;20040;-71
2023/08/15 02:08:31;;;;;;;9.05;8.15;;;17.40;99.90;;;;;;4946468;28;20098;-71
2023/08/15 02:10:57;;;;;;;9.57;7.55;;;17.40;99.90;;;;;;4944285;28;20105;-71
2023/08/15 02:13:22;;;;;;;11.15;8.52;;;17.40;99.90;;;;;;4945828;28;20066;-71
2023/08/15 02:15:49;;;;;;;13.95;9.38;;;17.50;99.90;;;;;;4946136;28;20394;-71
2023/08/15 02:18:14;;;;;;;18.95;10.20;;;17.40;99.90;;;;;;4944276;28;20118;-71
2023/08/15 02:20:40;;;;;;;12.27;9.40;;;17.40;99.90;;;;;;4947813;28;20046;-71
2023/08/15 02:23:05;;;;;;;9.68;8.38;;;17.50;99.90;;;;;;4960832;28;20111;-71
2023/08/15 02:25:31;;;;;;;9.48;8.45;;;17.50;99.90;;;;;;4945486;28;20098;-71
2023/08/15 02:27:56;;;;;;;11.85;8.32;;;17.50;99.90;;;;;;4940563;28;20049;-71
2023/08/15 02:30:22;;;;;;;9.20;8.23;;;17.60;99.90;;;;;;4945265;28;20050;-71
2023/08/15 02:32:48;;;;;;;9.43;7.35;;;17.60;99.90;;;;;;4946542;28;20044;-71
2023/08/15 02:35:13;;;;;;;10.30;8.48;;;17.60;99.90;;;;;;4956260;28;20106;-71
2023/08/15 02:37:39;;;;;;;9.18;8.23;;;17.50;99.90;;;;;;4926500;29;20490;-71
2023/08/15 02:40:08;;;;;;;20.65;9.75;;;17.50;99.90;;;;;;4944075;28;20036;-71
2023/08/15 02:42:33;;;;;;;18.38;9.95;;;17.50;99.90;;;;;;4918696;29;20086;-71
2023/08/15 02:44:59;;;;;;;10.25;8.60;;;17.60;99.90;;;;;;4945024;28;20402;-71
2023/08/15 02:47:25;;;;;;;12.50;10.27;;;17.60;99.90;;;;;;4944707;28;20043;-71
2023/08/15 02:49:50;;;;;;;13.32;10.35;;;17.70;99.90;;;;;;4945565;28;20439;-71
2023/08/15 02:52:16;;;;;;;15.45;11.43;;;17.60;99.90;;;;;;4927521;28;20047;-71
2023/08/15 02:54:41;;;;;;;12.18;10.95;;;17.70;99.90;;;;;;4926848;28;20093;-71
2023/08/15 02:57:07;;;;;;;14.65;11.85;;;17.70;99.90;;;;;;4945381;28;20043;-71
2023/08/15 02:59:33;;;;;;;13.50;11.88;;;17.80;99.90;;;;;;4946133;28;20060;-71
2023/08/15 03:01:58;;;;;;;14.27;12.88;;;17.80;99.90;;;;;;4944480;28;20106;-71
2023/08/15 03:04:24;;;;;;;15.73;12.68;;;17.80;99.90;;;;;;4948325;28;20036;-71
2023/08/15 03:06:49;;;;;;;15.98;12.82;;;17.90;99.90;;;;;;4942635;28;20039;-71
2023/08/15 03:09:16;;;;;;;15.23;13.00;;;17.90;99.90;;;;;;4944642;28;20582;-71
2023/08/15 03:11:42;;;;;;;14.48;12.95;;;18.00;99.90;;;;;;4927574;29;20052;-71
2023/08/15 03:14:08;;;;;;;19.35;13.70;;;18.00;99.90;;;;;;4957549;28;21608;-71
2023/08/15 03:16:33;;;;;;;15.75;13.63;;;17.80;99.90;;;;;;4946808;28;20446;-71
2023/08/15 03:18:59;;;;;;;14.65;13.15;;;18.10;99.90;;;;;;4927610;28;20450;-71
2023/08/15 03:21:25;;;;;;;16.17;13.95;;;18.10;99.90;;;;;;4946638;28;20390;-71
2023/08/15 03:23:50;;;;;;;15.85;14.13;;;18.10;99.90;;;;;;4945814;28;20073;-71
2023/08/15 03:26:16;;;;;;;18.15;14.25;;;18.20;99.90;;;;;;4961516;28;20055;-71
2023/08/15 03:28:41;;;;;;;18.52;13.30;;;18.20;99.90;;;;;;4947195;28;20054;-71
2023/08/15 03:31:08;;;;;;;16.63;12.13;;;18.20;99.90;;;;;;4945879;28;20098;-71
2023/08/15 03:33:35;;;;;;;13.98;11.63;;;18.20;99.90;;;;;;4946044;28;20039;-71
2023/08/15 03:36:01;;;;;;;13.02;11.82;;;18.30;99.90;;;;;;4946074;28;20139;-71
2023/08/15 03:38:26;;;;;;;15.18;11.65;;;18.20;99.90;;;;;;4928075;29;20208;-71
2023/08/15 03:41:03;;;;;;;13.48;12.13;;;18.20;99.90;;;;;;4927986;29;20043;-71
2023/08/15 03:43:30;;;;;;;16.35;13.15;;;18.20;99.90;;;;;;4947120;28;20105;-71
2023/08/15 03:45:56;;;;;;;14.10;12.57;;;18.20;99.90;;;;;;4950186;28;20083;-71
2023/08/15 03:48:21;;;;;;;15.18;12.00;;;18.20;99.90;;;;;;4945912;28;20036;-71
2023/08/15 03:50:47;;;;;;;12.65;11.35;;;18.20;99.90;;;;;;4946815;28;20533;-71
2023/08/15 03:53:12;;;;;;;16.55;13.13;;;18.20;99.90;;;;;;4960210;28;20051;-71
2023/08/15 03:55:38;;;;;;;14.70;13.25;;;18.20;99.90;;;;;;4943649;28;20081;-71
2023/08/15 03:58:04;;;;;;;15.82;13.32;;;18.30;99.90;;;;;;4928876;29;20035;-71
2023/08/15 04:00:29;;;;;;;18.23;12.98;;;18.30;99.90;;;;;;4927793;29;20042;-71
2023/08/15 04:02:55;;;;;;;18.25;13.75;;;18.30;99.90;;;;;;4945804;28;20502;-71
2023/08/15 04:05:21;;;;;;;14.63;13.25;;;18.30;99.90;;;;;;4928952;28;20035;-71
2023/08/15 04:07:47;;;;;;;14.18;12.02;;;18.30;99.90;;;;;;4943833;28;20439;-71
2023/08/15 04:10:13;;;;;;;14.43;12.73;;;18.40;99.90;;;;;;4929882;28;20058;-71
2023/08/15 04:12:39;;;;;;;15.20;12.15;;;18.40;99.90;;;;;;4946261;28;20089;-71
2023/08/15 04:15:05;;;;;;;15.07;12.45;;;18.40;99.90;;;;;;4947275;28;20108;-71
2023/08/15 04:17:31;;;;;;;13.75;12.35;;;18.30;99.90;;;;;;4942177;28;20078;-71
2023/08/15 04:19:57;;;;;;;17.83;14.45;;;18.30;99.90;;;;;;4944599;28;20039;-71
2023/08/15 04:22:22;;;;;;;18.95;12.18;;;18.30;99.90;;;;;;4926585;28;20141;-71
2023/08/15 04:24:48;;;;;;;14.40;12.15;;;18.30;99.90;;;;;;4946510;28;20043;-71
2023/08/15 04:27:13;;;;;;;15.02;11.73;;;18.30;99.90;;;;;;4946739;28;20035;-71
2023/08/15 04:29:39;;;;;;;14.55;12.63;;;18.30;99.90;;;;;;4947418;28;20047;-71
2023/08/15 04:32:05;;;;;;;15.10;12.60;;;18.30;99.90;;;;;;4949657;28;20085;-71
2023/08/15 04:34:30;;;;;;;14.52;12.40;;;18.30;99.90;;;;;;4948565;28;20121;-71
2023/08/15 04:36:56;;;;;;;15.18;12.43;;;18.20;99.90;;;;;;4919800;29;20491;-72
2023/08/15 04:39:21;;;;;;;15.07;12.32;;;18.20;99.90;;;;;;4929790;28;20379;-71
2023/08/15 04:41:48;;;;;;;14.60;13.02;;;18.20;99.90;;;;;;4932000;29;20051;-71
2023/08/15 04:44:13;;;;;;;14.13;12.73;;;18.20;99.90;;;;;;4927386;28;20080;-71
2023/08/15 04:46:39;;;;;;;14.38;12.60;;;18.20;99.90;;;;;;4938736;28;20644;-71
2023/08/15 04:49:05;;;;;;;15.13;12.32;;;18.20;99.90;;;;;;4923093;28;21651;-71
2023/08/15 04:51:31;;;;;;;13.25;11.48;;;18.20;99.90;;;;;;4939589;28;20051;-71
2023/08/15 04:53:57;;;;;;;15.82;11.77;;;18.20;99.90;;;;;;4942734;28;20145;-71
2023/08/15 04:56:22;;;;;;;12.68;11.57;;;18.20;99.90;;;;;;4944646;28;20046;-71
2023/08/15 04:58:48;;;;;;;12.32;10.68;;;18.20;99.90;;;;;;4944276;28;20063;-71
2023/08/15 05:01:14;;;;;;;17.40;11.20;;;18.20;99.90;;;;;;4963171;28;20039;-71
2023/08/15 05:03:40;;;;;;;11.48;9.50;;;18.20;99.90;;;;;;4946988;28;20039;-71
2023/08/15 05:06:06;;;;;;;13.90;10.27;;;18.20;99.90;;;;;;4925888;28;20147;-71
2023/08/15 05:08:31;;;;;;;12.75;10.00;;;18.30;99.90;;;;;;4942533;28;20497;-72
2023/08/15 05:10:57;;;;;;;16.35;10.68;;;18.30;99.90;;;;;;4959404;28;20046;-71
2023/08/15 05:13:23;;;;;;;12.25;9.77;;;18.30;99.90;;;;;;4946646;28;20043;-71
2023/08/15 05:15:49;;;;;;;13.10;9.77;;;18.20;99.90;;;;;;4948481;28;20043;-72
2023/08/15 05:18:15;;;;;;;13.23;9.00;;;18.30;99.90;;;;;;4930015;28;20035;-72
2023/08/15 05:20:42;;;;;;;12.35;8.70;;;18.30;99.90;;;;;;4942882;28;20039;-72
2023/08/15 05:23:08;;;;;;;10.85;8.05;;;18.30;99.90;;;;;;4960468;28;20129;-72
2023/08/15 05:25:34;;;;;;;13.88;9.60;;;18.30;99.90;;;;;;4949167;28;20170;-72
2023/08/15 05:28:04;;;;;;;11.43;8.45;;;18.40;99.90;;;;;;4947133;28;20043;-72
2023/08/15 05:30:31;;;;;;;11.57;8.05;;;18.40;99.90;;;;;;4947073;28;20058;-72
2023/08/15 05:32:58;;;;;;;13.00;8.25;;;18.50;99.90;;;;;;4948947;28;20512;-71
2023/08/15 05:35:23;;;;;;;10.65;8.30;;;18.60;99.90;;;;;;4962700;28;20057;-72
2023/08/15 05:37:49;;;;;;;12.35;7.18;;;19.00;99.90;;;;;;4931899;28;20043;-71
2023/08/15 05:40:15;;;;;;;10.50;7.40;;;19.30;99.90;;;;;;4947801;28;20031;-72
2023/08/15 05:42:41;;;;;;;7.13;6.20;;;19.30;99.90;;;;;;4927278;29;20043;-72
2023/08/15 05:45:07;;;;;;;11.98;6.53;;;19.50;99.90;;;;;;4946790;28;20153;-72
2023/08/15 05:47:33;;;;;;;10.07;6.30;;;19.20;99.90;;;;;;4948089;28;20403;-71
2023/08/15 05:49:58;;;;;;;8.88;6.38;;;19.20;99.90;;;;;;4949315;28;20042;-72
2023/08/15 05:52:25;;;;;;;10.88;6.10;;;19.20;99.90;;;;;;4960680;28;20051;-72
2023/08/15 05:54:50;;;;;;;10.07;5.72;;;19.30;99.90;;;;;;4946660;28;20406;-72
2023/08/15 05:57:16;;;;;;;7.50;4.78;;;19.60;99.90;;;;;;4925429;28;20125;-72
2023/08/15 05:59:42;;;;;;;7.80;5.55;;;19.90;99.90;;;;;;4947303;28;20050;-73
2023/08/15 06:02:07;;;;;;;9.18;5.72;;;20.10;99.90;;;;;;4961343;28;20478;-73
2023/08/15 06:04:33;;;;;;;10.75;5.53;;;20.10;99.90;;;;;;4928491;29;20071;-73
2023/08/15 06:06:59;;;;;;;6.00;4.55;;;20.10;99.90;;;;;;4935236;29;20031;-73
2023/08/15 06:09:24;;;;;;;5.50;4.65;;;20.00;99.90;;;;;;4950579;28;20126;-73
2023/08/15 06:11:50;;;;;;;6.63;5.03;;;19.90;99.90;;;;;;4930311;29;21017;-73
2023/08/15 06:14:19;;;;;;;6.20;4.63;;;19.80;99.90;;;;;;4929025;28;20062;-73
2023/08/15 06:16:45;;;;;;;8.55;4.55;;;19.80;99.90;;;;;;4928572;29;20678;-73
2023/08/15 06:19:10;;;;;;;7.88;4.38;;;19.70;99.90;;;;;;4948939;28;20082;-72
2023/08/15 06:21:36;;;;;;;10.48;4.43;;;19.80;99.90;;;;;;4947692;28;20043;-72
2023/08/15 06:24:02;;;;;;;10.35;4.40;;;19.80;99.90;;;;;;4939605;28;20122;-73
2023/08/15 06:26:27;;;;;;;11.65;4.43;;;19.90;99.90;;;;;;4933890;28;20043;-73
2023/08/15 06:28:53;;;;;;;6.78;3.67;;;20.40;99.90;;;;;;4942690;28;20047;-72
2023/08/15 06:31:19;;;;;;;6.80;3.58;;;20.80;99.90;;;;;;4943249;28;20047;-73
2023/08/15 06:33:45;;;;;;;5.20;3.60;;;21.20;99.90;;;;;;4926762;29;20118;-73
2023/08/15 06:36:10;;;;;;;6.43;3.15;;;21.80;99.90;;;;;;4957443;28;21016;-73
2023/08/15 06:38:36;;;;;;;8.52;4.03;;;22.30;99.90;;;;;;4943359;28;20054;-73
2023/08/15 06:41:02;;;;;;;6.10;3.53;;;22.60;99.90;;;;;;4927928;28;20043;-73
2023/08/15 06:43:28;;;;;;;7.88;3.15;;;23.00;99.90;;;;;;4943939;28;20035;-73
2023/08/15 06:45:54;;;;;;;7.03;2.80;;;23.00;99.90;;;;;;4940887;28;20040;-73
2023/08/15 06:48:20;;;;;;;4.43;2.50;;;23.40;99.90;;;;;;4926817;28;20088;-73
2023/08/15 06:50:46;;;;;;;7.25;2.10;;;23.40;99.90;;;;;;4957543;28;20055;-73
2023/08/15 06:53:12;;;;;;;8.55;2.60;;;23.80;99.90;;;;;;4943633;28;20051;-73
2023/08/15 06:55:37;;;;;;;7.47;2.75;;;23.90;99.90;;;;;;4927092;29;20039;-73
2023/08/15 06:58:03;;;;;;;8.73;2.05;;;24.20;99.90;;;;;;4942560;28;20035;-73
2023/08/15 07:00:29;;;;;;;10.52;3.13;;;24.30;99.90;;;;;;4940760;28;20107;-73
2023/08/15 07:02:55;;;;;;;7.13;2.47;;;24.30;99.90;;;;;;4943702;28;20043;-73
2023/08/15 07:05:21;;;;;;;7.50;2.72;;;24.60;99.90;;;;;;4929392;28;20043;-74
2023/08/15 07:07:46;;;;;;;6.00;2.50;;;24.80;99.90;;;;;;4943914;28;20520;-73
2023/08/15 07:10:12;;;;;;;8.35;2.58;;;24.90;99.90;;;;;;4942883;28;20436;-73
2023/08/15 07:12:38;;;;;;;5.75;1.80;;;24.90;99.90;;;;;;4941189;28;20039;-73
2023/08/15 07:15:04;;;;;;;6.65;2.58;;;24.90;99.90;;;;;;4942439;28;20051;-74
2023/08/15 07:17:30;;;;;;;9.00;2.47;;;25.00;99.90;;;;;;4942138;28;20592;-73
2023/08/15 07:19:56;;;;;;;7.22;2.13;;;24.90;99.90;;;;;;4940500;29;20261;-73
2023/08/15 07:22:21;;;;;;;8.77;2.10;;;25.00;99.90;;;;;;4912527;29;20541;-74
2023/08/15 07:24:47;;;;;;;7.63;2.80;;;25.20;99.90;;;;;;4940677;28;20514;-73
2023/08/15 07:27:13;;;;;;;9.23;2.92;;;25.10;99.90;;;;;;4942684;28;20493;-74
2023/08/15 07:29:38;;;;;;;6.60;2.15;;;25.20;99.90;;;;;;4924187;29;20358;-73
2023/08/15 07:32:06;;;;;;;6.50;2.22;;;25.20;99.90;;;;;;4931518;28;20110;-73
2023/08/15 07:34:32;;;;;;;6.45;1.95;;;25.30;99.90;;;;;;4923891;29;20135;-73
2023/08/15 07:36:58;;;;;;;6.95;1.98;;;25.20;99.90;;;;;;4955183;28;20107;-73
2023/08/15 07:39:23;;;;;;;9.35;2.00;;;24.80;99.90;;;;;;4925787;29;20036;-74
2023/08/15 07:41:49;;;;;;;9.23;1.90;;;24.50;99.90;;;;;;4924687;29;20090;-74
2023/08/15 07:44:14;;;;;;;6.72;1.92;;;24.60;99.90;;;;;;4939693;28;20032;-73
2023/08/15 07:46:40;;;;;;;5.00;1.58;;;24.60;99.90;;;;;;4941642;28;20117;-74
2023/08/15 07:49:06;;;;;;;7.53;2.72;;;24.70;99.90;;;;;;4942590;28;20040;-74
2023/08/15 07:51:31;;;;;;;5.20;1.25;;;24.70;99.90;;;;;;4925568;29;20047;-74
2023/08/15 07:53:57;;;;;;;5.35;2.08;;;24.90;99.90;;;;;;4923872;28;21028;-74
2023/08/15 07:56:23;;;;;;;6.07;1.40;;;25.10;99.90;;;;;;4942751;28;20039;-73
2023/08/15 07:58:48;;;;;;;5.65;2.20;;;25.20;99.90;;;;;;4940326;28;20516;-74
2023/08/15 08:01:14;;;;;;;6.03;1.98;;;25.30;99.90;;;;;;4922848;28;20470;-73
2023/08/15 08:03:42;;;;;;;6.05;1.65;;;25.30;99.90;;;;;;4941064;28;20039;-73
2023/08/15 08:06:08;;;;;;;5.95;1.90;;;25.20;99.90;;;;;;4943048;28;20581;-73
2023/08/15 08:08:34;;;;;;;5.75;1.38;;;25.30;99.90;;;;;;4940963;28;20050;-73
2023/08/15 08:11:00;;;;;;;6.72;1.90;;;25.30;99.90;;;;;;4923575;28;20070;-73
2023/08/15 08:13:25;;;;;;;6.25;1.83;;;25.30;99.90;;;;;;4922903;29;20045;-73
2023/08/15 08:15:51;;;;;;;11.80;1.73;;;25.30;99.90;;;;;;4940513;28;20083;-73
2023/08/15 08:18:16;;;;;;;6.57;2.05;;;25.30;99.90;;;;;;4940201;28;20373;-73
2023/08/15 08:20:42;;;;;;;6.15;1.35;;;25.20;99.90;;;;;;4944060;28;20114;-73
2023/08/15 08:23:08;;;;;;;5.65;1.73;;;25.00;99.90;;;;;;4942388;28;20503;-73
2023/08/15 08:25:34;;;;;;;6.45;1.50;;;25.30;99.90;;;;;;4924266;29;20062;-73
2023/08/15 08:27:59;;;;;;;8.18;1.85;;;25.20;99.90;;;;;;4924053;28;20150;-73
2023/08/15 08:30:25;;;;;;;8.30;1.75;;;25.20;99.90;;;;;;4939459;28;20065;-73
2023/08/15 08:32:51;;;;;;;3.42;1.45;;;25.40;99.90;;;;;;4941720;29;20134;-73
2023/08/15 08:35:17;;;;;;;6.35;1.63;;;25.80;99.90;;;;;;4913386;28;20523;-74
2023/08/15 08:37:44;;;;;;;4.50;1.20;;;26.20;99.90;;;;;;4941663;28;20043;-73
2023/08/15 08:40:12;;;;;;;7.78;1.67;;;26.50;99.90;;;;;;4941795;28;20048;-74
2023/08/15 08:42:40;;;;;;;6.97;1.65;;;26.70;99.90;;;;;;4942659;28;20051;-74
2023/08/15 08:45:08;;;;;;;5.13;1.30;;;27.00;99.90;;;;;;4940045;28;20183;-73
2023/08/15 08:47:38;;;;;;;4.50;1.52;;;27.10;99.90;;;;;;4913592;29;20471;-73
2023/08/15 08:50:06;;;;;;;7.22;1.90;;;26.80;99.90;;;;;;4939366;28;20077;-73
2023/08/15 08:52:31;;;;;;;4.35;1.52;;;26.50;99.90;;;;;;4939485;28;20502;-74
2023/08/15 08:54:57;;;;;;;4.00;0.88;;;26.30;99.90;;;;;;4940429;28;20051;-73
2023/08/15 08:57:27;;;;;;;6.20;1.70;;;26.40;99.90;;;;;;4944739;28;20051;-73
2023/08/15 08:59:56;;;;;;;4.50;1.13;;;26.40;99.90;;;;;;4945195;28;20119;-74
2023/08/15 09:02:22;;;;;;;6.72;1.42;;;26.50;99.90;;;;;;4929279;28;20197;-73
2023/08/15 09:04:48;;;;;;;4.82;1.27;;;26.30;99.90;;;;;;4946784;29;20106;-73
2023/08/15 09:07:17;;;;;;;7.03;1.52;;;26.30;99.90;;;;;;4957689;28;20047;-73
2023/08/15 09:09:43;;;;;;;3.47;1.52;;;26.40;99.90;;;;;;4930668;29;20050;-73
2023/08/15 09:12:08;;;;;;;7.85;1.63;;;26.20;99.90;;;;;;4942899;28;20480;-73
2023/08/15 09:14:40;;;;;;;6.18;1.55;;;26.10;99.90;;;;;;4945344;28;20050;-73
2023/08/15 09:17:06;;;;;;;3.45;1.08;;;26.00;99.90;;;;;;4961765;28;20871;-73
2023/08/15 09:19:39;;;;;;;10.00;1.95;;;25.90;99.90;;;;;;4945343;29;20141;-73
2023/08/15 09:22:06;;;;;;;5.22;1.55;;;25.90;99.90;;;;;;4962243;28;20517;-73
2023/08/15 09:24:32;;;;;;;4.57;1.55;;;26.00;99.90;;;;;;4931770;28;20039;-73
2023/08/15 09:27:05;;;;;;;4.70;1.88;;;25.90;99.90;;;;;;4937035;28;20449;-73
2023/08/15 09:29:34;;;;;;;2.70;1.05;;;25.90;99.90;;;;;;4945176;28;20079;-73
2023/08/15 09:32:00;;;;;;;7.30;1.85;;;25.60;99.90;;;;;;4943409;28;20051;-73
2023/08/15 09:34:25;;;;;;;4.43;1.40;;;25.50;99.90;;;;;;4926390;28;20050;-73
2023/08/15 09:36:51;;;;;;;3.50;1.20;;;25.60;99.90;;;;;;4953903;28;20426;-73
2023/08/15 09:39:17;;;;;;;6.15;1.70;;;25.50;99.90;;;;;;4951675;28;20090;-73
2023/08/15 09:41:46;;;;;;;6.95;1.58;;;25.60;99.90;;;;;;4946708;28;20385;-73
2023/08/15 09:44:12;;;;;;;5.45;1.63;;;25.70;99.90;;;;;;4948644;28;20051;-75
2023/08/15 09:46:38;;;;;;;5.30;1.38;;;25.90;99.90;;;;;;4952760;28;20075;-72
2023/08/15 09:49:05;;;;;;;4.18;1.52;;;26.10;99.90;;;;;;4959380;28;20043;-73
2023/08/15 09:51:31;;;;;;;9.30;2.03;;;26.20;99.90;;;;;;4945284;28;20050;-73
2023/08/15 09:53:59;;;;;;;4.60;1.90;;;26.20;99.90;;;;;;4943651;28;20082;-73
2023/08/15 09:56:25;;;;;;;4.28;1.13;;;25.90;99.90;;;;;;4944452;28;20067;-73
2023/08/15 09:58:51;;;;;;;3.65;1.65;;;25.90;99.90;;;;;;4955135;28;20082;-73
2023/08/15 10:01:19;;;;;;;3.92;1.30;;;26.00;99.90;;;;;;4943659;28;20055;-73
2023/08/15 10:03:46;;;;;;;4.95;1.85;;;26.00;99.90;;;;;;4945114;28;20047;-73
2023/08/15 10:06:13;;;;;;;12.20;2.42;;;26.10;99.90;;;;;;4942465;28;20375;-73
2023/08/15 10:08:40;;;;;;;5.95;1.88;;;26.10;99.90;;;;;;4916068;28;20126;-73
2023/08/15 10:11:08;;;;;;;6.28;1.80;;;25.80;99.90;;;;;;4942197;28;20047;-72
2023/08/15 10:13:37;;;;;;;7.70;1.77;;;25.80;99.90;;;;;;4928195;28;20043;-73
2023/08/15 10:16:05;;;;;;;4.43;1.33;;;25.90;99.90;;;;;;4945589;28;20042;-72
2023/08/15 10:18:33;;;;;;;5.15;1.40;;;26.10;99.90;;;;;;4941183;28;20039;-73
2023/08/15 10:21:00;;;;;;;5.78;1.30;;;26.20;99.90;;;;;;4944368;28;20040;-72
2023/08/15 10:23:33;;;;;;;2.88;0.73;;;26.10;99.90;;;;;;4928559;28;20051;-73
2023/08/15 10:26:00;;;;;;;5.30;1.25;;;26.10;99.90;;;;;;4938307;28;20558;-73
2023/08/15 10:28:32;;;;;;;4.00;1.48;;;26.10;99.90;;;;;;4939394;28;20521;-73
2023/08/15 10:30:58;;;;;;;5.10;1.10;;;26.40;99.90;;;;;;4925318;29;20082;-73
2023/08/15 10:33:26;;;;;;;2.30;0.90;;;26.50;99.90;;;;;;4945459;28;20066;-72
2023/08/15 10:35:55;;;;;;;7.43;1.25;;;26.50;99.90;;;;;;4960700;28;20049;-72
2023/08/15 10:38:21;;;;;;;4.00;0.82;;;26.50;99.90;;;;;;4927510;28;20081;-73
2023/08/15 10:40:48;;;;;;;3.88;1.30;;;26.30;99.90;;;;;;4913208;29;20070;-72
2023/08/15 10:43:15;;;;;;;4.43;1.45;;;26.10;99.90;;;;;;4931325;28;20453;-72
2023/08/15 10:45:43;;;;;;;3.33;1.10;;;25.90;99.90;;;;;;4959861;28;20047;-72
2023/08/15 10:48:10;;;;;;;2.47;0.80;;;26.00;99.90;;;;;;4942321;28;20035;-73
2023/08/15 10:50:41;;;;;;;4.70;1.25;;;25.90;99.90;;;;;;4944000;28;20039;-72
2023/08/15 10:53:07;;;;;;;5.47;1.25;;;25.80;99.90;;;;;;4945115;28;20058;-72
2023/08/15 10:55:36;;;;;;;3.80;1.17;;;25.50;99.90;;;;;;4926730;28;20039;-73
2023/08/15 10:58:07;;;;;;;4.05;1.58;;;25.40;99.90;;;;;;4943719;28;20064;-72
2023/08/15 11:00:33;;;;;;;3.70;1.55;;;25.30;99.90;;;;;;4942794;28;20031;-72
2023/08/15 11:03:02;;;;;;;3.17;1.10;;;25.30;99.90;;;;;;4942414;28;20427;-73
2023/08/15 11:05:28;;;;;;;4.07;1.23;;;25.30;99.90;;;;;;4956753;28;20051;-73
2023/08/15 11:07:55;;;;;;;4.70;1.50;;;25.50;99.90;;;;;;4925912;28;20054;-73
2023/08/15 11:10:22;;;;;;;5.57;1.58;;;25.90;99.90;;;;;;4944688;28;20039;-73
2023/08/15 11:12:49;;;;;;;6.97;1.75;;;26.00;99.90;;;;;;4958662;28;20047;-72
2023/08/15 11:15:15;;;;;;;5.55;1.23;;;26.00;99.90;;;;;;4961850;28;20065;-72
2023/08/15 11:17:45;;;;;;;4.88;1.55;;;25.90;99.90;;;;;;4956588;28;20051;-72
2023/08/15 11:20:11;;;;;;;5.93;1.48;;;25.80;99.90;;;;;;4944384;29;20031;-72
2023/08/15 11:22:37;;;;;;;6.57;1.70;;;25.60;99.90;;;;;;4945906;28;20051;-72
2023/08/15 11:25:03;;;;;;;9.90;1.40;;;25.40;99.90;;;;;;4941878;28;20043;-73
2023/08/15 11:27:29;;;;;;;5.15;1.73;;;25.60;99.90;;;;;;4961079;28;20127;-72
2023/08/15 11:29:58;;;;;;;7.07;1.70;;;25.80;99.90;;;;;;4944720;29;20105;-72
2023/08/15 11:32:25;;;;;;;7.97;2.58;;;25.70;99.90;;;;;;4956541;28;20043;-72
2023/08/15 11:34:51;;;;;;;5.40;1.80;;;25.60;99.90;;;;;;4936800;28;20039;-73
2023/08/15 11:37:17;;;;;;;7.60;2.20;;;25.40;99.90;;;;;;4939967;28;20138;-72
2023/08/15 11:39:52;;;;;;;6.00;1.60;;;25.30;99.90;;;;;;4936552;28;20210;-72
2023/08/15 11:42:18;;;;;;;8.60;2.13;;;25.10;99.90;;;;;;4943726;28;20043;-73
2023/08/15 11:44:43;;;;;;;6.43;1.58;;;24.90;99.90;;;;;;4957079;28;20047;-73
2023/08/15 11:47:13;;;;;;;5.85;2.10;;;24.70;99.90;;;;;;4925773;28;20369;-73
2023/08/15 11:49:39;;;;;;;4.85;1.75;;;24.60;99.90;;;;;;4922041;29;20078;-72
2023/08/15 11:52:05;;;;;;;5.63;2.10;;;24.70;99.90;;;;;;4923542;28;20733;-73
2023/08/15 11:54:30;;;;;;;6.03;2.20;;;24.80;99.90;;;;;;4938241;28;20046;-73
2023/08/15 11:56:56;;;;;;;5.50;2.00;;;24.90;99.90;;;;;;4953094;28;20039;-73
2023/08/15 11:59:24;;;;;;;6.10;2.10;;;24.90;99.90;;;;;;4941599;28;20031;-73
2023/08/15 12:01:50;;;;;;;4.70;1.92;;;25.00;99.90;;;;;;4922338;29;20118;-72
2023/08/15 12:04:16;;;;;;;5.95;1.73;;;25.00;99.90;;;;;;4939759;28;20040;-72
2023/08/15 12:06:42;;;;;;;4.80;1.60;;;25.20;99.90;;;;;;4952557;28;20078;-72
2023/08/15 12:09:08;;;;;;;4.65;1.58;;;25.40;99.90;;;;;;4941609;28;20488;-73
2023/08/15 12:11:34;;;;;;;5.70;1.27;;;25.50;99.90;;;;;;4939939;28;20050;-72
2023/08/15 12:14:00;;;;;;;7.13;1.58;;;25.60;99.90;;;;;;4937184;28;20048;-73
2023/08/15 12:16:26;;;;;;;7.15;2.15;;;25.80;99.90;;;;;;4937095;29;20063;-73
2023/08/15 12:18:52;;;;;;;4.20;1.25;;;25.90;99.90;;;;;;4923541;29;20545;-73
2023/08/15 12:21:18;;;;;;;6.05;1.63;;;26.00;99.90;;;;;;4921290;29;20051;-73
2023/08/15 12:23:44;;;;;;;4.43;1.60;;;25.90;99.90;;;;;;4941968;28;20126;-73
2023/08/15 12:26:10;;;;;;;3.75;1.60;;;25.70;99.90;;;;;;4941784;28;20039;-72
2023/08/15 12:28:36;;;;;;;5.60;2.08;;;25.40;99.90;;;;;;4938357;28;20042;-73
2023/08/15 12:31:02;;;;;;;5.80;1.55;;;25.30;99.90;;;;;;4953523;28;20043;-72
2023/08/15 12:33:33;;;;;;;3.88;1.92;;;25.30;99.90;;;;;;4942849;28;20039;-73
2023/08/15 12:36:00;;;;;;;4.35;1.35;;;25.20;99.90;;;;;;4938436;28;20040;-72